PAWSPAAQ

Guest
Details From PAWS - WASILLA
To PAAQ - PALMER MUNI
Flight Number -
Tags generated
Created
Modified
Stats Distance 15 nm / 28 km
Max Altitude 1,300 ft / 396 m
Waypoints 3
Social Downloads 0
Likes 0
Share VATSIM

Download

Looking for another format? Having issues loading an existing format? Contact us
Advertisement - Login to hide

Notes

Basic altitude profile: - Ascent Rate: 2500ft/min - Ascent Speed: 250kts - Cruise Altitude: 35000ft - Cruise Speed: 420kts - Descent Rate: 1500ft/min - Descent Speed: 250kts Options: - Use NATs: yes - Use PACOTS: yes - Use low airways: yes - Use high airways: yes

Route

PAWS WATUB PAAQ

ID Type Via Altitude Latitude Longitude Leg Dist Tot Dist Heading (true) Name
O PAWS APT - 0 ft / 0 m 61.57166˚ -149.54030˚ - 0 nm - WASILLA
WATUB FIX - 1,300 ft / 396 m 61.62640˚ -149.47132˚ 3 nm 3 nm 31° / 31° -
O PAAQ APT - 0 ft / 0 m 61.59493˚ -149.08886˚ 11 nm 14 nm 100° / 100° PALMER MUNI

Altitude Profile

Advertisement - Login to hide

PAWS

Details ICAO PAWS
Name WASILLA
Region USA (Alaska)
Timezone America/Anchorage (UTC-9.0)
Stats Elevation 354 ft / 108 m (AMSL)
Location 61.571660° -149.540296°
Runways 1
Magnetic Variation 16.437° E

METAR

PAWS 132256Z AUTO 08011G20KT 10SM CLR 06/01 A2957 RMK AO2 SLP026 T00610011

Decode

TAF

Not found

Departure Runways

ID Width Length Bearing (true) Bearing (mag) Surface Threshold Offset Overrun Length
03 75 ft / 23 m 3,689 ft / 1,125 m 56.19° 39.75° Asphalt 0 ft / 0 m 200 ft / 61 m
21 75 ft / 23 m 3,689 ft / 1,125 m 236.20° 219.76° Asphalt 0 ft / 0 m 300 ft / 91 m

PAAQ

Details ICAO PAAQ (PAQ)
Name PALMER MUNI
Region USA (Alaska)
Timezone America/Anchorage (UTC-9.0)
Stats Elevation 242 ft / 74 m (AMSL)
Location 61.594926° -149.088860°
Runways 3
Magnetic Variation 16.593° E

METAR

PAAQ 132253Z 12019G25KT 10SM -RA BKN032 04/03 A2959 RMK AO2 PK WND 12029/2228 RAB2157 SLP022 P0001 T00440028

Decode

TAF

PAAQ 132110Z 1321/1418 13015G22KT P6SM -SHRA BKN045 OVC080 FM140000 08011KT P6SM SCT045 BKN080 FM140300 35005KT P6SM SCT060 BKN100

Decode

Destination Runways

ID Width Length Bearing (true) Bearing (mag) Surface Threshold Offset Overrun Length
09 75 ft / 23 m 3,606 ft / 1,099 m 113.35° 96.76° Asphalt 0 ft / 0 m 0 ft / 0 m
16 100 ft / 30 m 5,998 ft / 1,828 m 179.83° 163.24° Asphalt 500 ft / 152 m 0 ft / 0 m
16S 60 ft / 18 m 1,558 ft / 475 m 179.77° 163.18° Gravel 0 ft / 0 m 0 ft / 0 m
27 75 ft / 23 m 3,606 ft / 1,099 m 293.36° 276.77° Asphalt 0 ft / 0 m 0 ft / 0 m
34 100 ft / 30 m 5,998 ft / 1,828 m 359.83° 343.24° Asphalt 0 ft / 0 m 0 ft / 0 m
34S 60 ft / 18 m 1,558 ft / 475 m 359.77° 343.18° Gravel 0 ft / 0 m 0 ft / 0 m